createdAt,value
2023-04-07T00:01:12.634Z,98217.56
2023-04-07T00:04:15.597Z,98209.81
2023-04-07T00:07:20.166Z,98205.28
2023-04-07T00:10:22.952Z,98201.22
2023-04-07T00:13:26.302Z,98203.91
2023-04-07T00:16:28.934Z,98204.16
2023-04-07T00:19:33.370Z,98199.34
2023-04-07T00:22:37.723Z,98195.59
2023-04-07T00:25:40.391Z,98198.19
2023-04-07T00:28:42.991Z,98195.81
2023-04-07T00:31:45.650Z,98189.38
2023-04-07T00:34:48.266Z,98183.50
2023-04-07T00:37:52.359Z,98175.75
2023-04-07T00:40:58.685Z,98168.81
2023-04-07T00:44:01.486Z,98169.91
2023-04-07T00:47:04.479Z,98166.38
2023-04-07T00:50:08.316Z,98162.66
2023-04-07T00:53:12.958Z,98163.69
2023-04-07T00:56:16.056Z,98153.50
2023-04-07T00:59:19.396Z,98149.78
2023-04-07T01:02:28.834Z,98146.31
2023-04-07T01:05:39.139Z,98145.22
2023-04-07T01:08:51.346Z,98144.44
2023-04-07T01:12:04.786Z,98137.50
2023-04-07T01:15:10.860Z,98133.22
2023-04-07T01:18:18.858Z,98125.72
2023-04-07T01:21:27.080Z,98128.34
2023-04-07T01:24:58.941Z,98125.97
2023-04-07T01:28:19.055Z,98115.84
2023-04-07T01:31:27.282Z,98115.53
2023-04-07T01:34:32.383Z,98117.94
2023-04-07T01:37:35.752Z,98109.34
2023-04-07T01:40:40.342Z,98114.16
2023-04-07T01:43:45.134Z,98114.72
2023-04-07T01:46:51.590Z,98115.84
2023-04-07T01:49:55.247Z,98108.59
2023-04-07T01:52:58.507Z,98099.75
2023-04-07T01:56:01.318Z,98097.66
2023-04-07T01:59:03.956Z,98095.72
2023-04-07T02:02:08.374Z,98099.50
2023-04-07T02:05:14.660Z,98093.59
2023-04-07T02:08:18.853Z,98094.66
2023-04-07T02:11:23.618Z,98085.28
2023-04-07T02:14:26.902Z,98093.53
2023-04-07T02:17:34.842Z,98086.06
2023-04-07T02:20:38.557Z,98083.94
2023-04-07T02:23:41.291Z,98087.09
2023-04-07T02:26:44.092Z,98083.41
2023-04-07T02:29:46.717Z,98070.34
2023-04-07T02:32:50.886Z,98077.81
2023-04-07T02:35:53.597Z,98075.94
2023-04-07T02:38:56.582Z,98071.88
2023-04-07T02:41:59.239Z,98065.22
2023-04-07T02:45:01.874Z,98067.88
2023-04-07T02:48:06.283Z,98065.22
2023-04-07T02:51:08.879Z,98068.47
2023-04-07T02:54:11.596Z,98054.53
2023-04-07T02:57:14.662Z,98053.19
2023-04-07T03:00:17.572Z,98059.31
2023-04-07T03:03:21.720Z,98051.31
2023-04-07T03:06:24.449Z,98045.69
2023-04-07T03:09:27.415Z,98049.69
2023-04-07T03:12:30.072Z,98044.63
2023-04-07T03:15:32.703Z,98047.31
2023-04-07T03:18:36.656Z,98039.84
2023-04-07T03:21:39.754Z,98041.72
2023-04-07T03:24:42.381Z,98036.34
2023-04-07T03:27:45.181Z,98039.59
2023-04-07T03:30:47.790Z,98030.75
2023-04-07T03:33:52.183Z,98028.34
2023-04-07T03:36:55.116Z,98030.22
2023-04-07T03:39:57.776Z,98025.66
2023-04-07T03:43:00.369Z,98031.53
2023-04-07T03:46:03.109Z,98021.66
2023-04-07T03:49:07.498Z,98024.34
2023-04-07T03:52:10.205Z,98027.84
2023-04-07T03:55:12.819Z,98023.53
2023-04-07T03:58:15.509Z,98015.50
2023-04-07T04:01:18.181Z,98018.47
2023-04-07T04:04:24.346Z,98014.44
2023-04-07T04:07:27.286Z,98012.06
2023-04-07T04:10:29.948Z,98008.56
2023-04-07T04:13:32.897Z,98017.13
2023-04-07T04:16:36.426Z,98005.34
2023-04-07T04:19:40.482Z,98002.97
2023-04-07T04:22:43.115Z,98002.94
2023-04-07T04:25:45.778Z,98002.41
2023-04-07T04:28:48.363Z,97995.16
2023-04-07T04:31:51.012Z,98005.59
2023-04-07T04:34:55.343Z,98006.38
2023-04-07T04:37:57.996Z,98006.63
2023-04-07T04:41:00.603Z,97999.94
2023-04-07T04:44:03.155Z,98007.97
2023-04-07T04:47:05.840Z,98009.59
2023-04-07T04:50:10.978Z,98006.13
2023-04-07T04:53:13.566Z,98006.38
2023-04-07T04:56:17.053Z,98004.28
2023-04-07T04:59:19.649Z,98009.38
2023-04-07T05:02:22.410Z,98018.44
2023-04-07T05:05:26.494Z,98015.78
2023-04-07T05:08:29.103Z,98009.63
2023-04-07T05:11:31.745Z,98016.28
2023-04-07T05:14:34.386Z,98008.00
2023-04-07T05:17:37.034Z,98014.44
2023-04-07T05:20:41.428Z,98011.75
2023-04-07T05:23:44.038Z,98007.22
2023-04-07T05:26:46.666Z,98017.13
2023-04-07T05:29:49.276Z,98016.56
2023-04-07T05:32:52.002Z,98017.13
2023-04-07T05:35:56.190Z,98020.06
2023-04-07T05:38:58.823Z,98013.63
2023-04-07T05:42:02.093Z,98013.91
2023-04-07T05:45:05.458Z,98014.44
2023-04-07T05:48:08.083Z,98012.81
2023-04-07T05:51:12.012Z,98014.69
2023-04-07T05:54:14.634Z,98017.59
2023-04-07T05:57:17.253Z,98017.63
2023-04-07T06:00:20.766Z,98013.66
2023-04-07T06:03:23.543Z,98017.13
2023-04-07T06:06:28.611Z,98016.59
2023-04-07T06:09:31.374Z,98019.53
2023-04-07T06:12:33.925Z,98019.25
2023-04-07T06:15:36.587Z,98013.38
2023-04-07T06:18:39.226Z,98019.56
2023-04-07T06:21:43.342Z,98022.47
2023-04-07T06:24:45.994Z,98017.41
2023-04-07T06:27:48.706Z,98022.47
2023-04-07T06:30:51.408Z,98021.41
2023-04-07T06:33:54.221Z,98021.13
2023-04-07T06:36:59.382Z,98024.34
2023-04-07T06:40:02.236Z,98023.00
2023-04-07T06:43:05.041Z,98026.22
2023-04-07T06:46:07.793Z,98019.81
2023-04-07T06:49:10.673Z,98021.97
2023-04-07T06:52:14.709Z,98024.09
2023-04-07T06:55:17.466Z,98017.66
2023-04-07T06:58:20.350Z,98021.66
2023-04-07T07:01:23.186Z,98014.72
2023-04-07T07:04:26.102Z,98016.06
2023-04-07T07:07:30.199Z,98017.66
2023-04-07T07:10:32.817Z,98014.72
2023-04-07T07:13:35.410Z,98020.59
2023-04-07T07:16:38.171Z,98012.56
2023-04-07T07:19:40.842Z,98020.34
2023-04-07T07:22:44.787Z,98009.06
2023-04-07T07:25:47.683Z,98017.06
2023-04-07T07:28:50.326Z,98020.19
2023-04-07T07:31:54.428Z,98018.88
2023-04-07T07:34:57.736Z,98022.25
2023-04-07T07:38:02.484Z,98014.81
2023-04-07T07:41:05.210Z,98018.41
2023-04-07T07:44:07.862Z,98013.25
2023-04-07T07:47:10.532Z,98015.00
2023-04-07T07:50:13.191Z,98017.00
2023-04-07T07:53:17.231Z,98013.91
2023-04-07T07:56:19.912Z,98006.81
2023-04-07T07:59:22.542Z,98015.94
2023-04-07T08:02:30.577Z,98012.53
2023-04-07T08:05:33.681Z,98013.06
2023-04-07T08:08:37.658Z,98013.13
2023-04-07T08:11:40.328Z,98017.00
2023-04-07T08:14:42.924Z,98020.31
2023-04-07T08:17:45.557Z,98027.50
2023-04-07T08:20:48.304Z,98028.41
2023-04-07T08:23:54.274Z,98035.06
2023-04-07T08:26:57.019Z,98034.63
2023-04-07T08:30:01.249Z,98027.47
2023-04-07T08:33:05.190Z,98036.47
2023-04-07T08:36:08.394Z,98036.06
2023-04-07T08:39:12.369Z,98032.44
2023-04-07T08:42:16.229Z,98031.47
2023-04-07T08:45:19.645Z,98031.34
2023-04-07T08:48:26.711Z,98035.09
2023-04-07T08:51:31.642Z,98030.03
2023-04-07T08:54:35.851Z,98032.94
2023-04-07T08:57:38.788Z,98027.88
2023-04-07T09:00:42.976Z,98030.59
2023-04-07T09:03:46.983Z,98026.53
2023-04-07T09:06:50.300Z,98023.53
2023-04-07T09:09:54.238Z,98038.25
2023-04-07T09:12:57.261Z,98028.88
2023-04-07T09:16:02.918Z,98033.75
2023-04-07T09:19:06.373Z,98044.47
2023-04-07T09:22:12.391Z,98045.09
2023-04-07T09:25:18.790Z,98037.47
2023-04-07T09:28:22.778Z,98033.75
2023-04-07T09:31:45.979Z,98036.25
2023-04-07T09:34:48.832Z,98031.88
2023-04-07T09:38:05.193Z,98032.56
2023-04-07T09:41:10.655Z,98038.16
2023-04-07T09:44:13.593Z,98043.91
2023-04-07T09:47:16.409Z,98040.25
2023-04-07T09:50:32.957Z,98043.34
2023-04-07T09:53:47.697Z,98039.06
2023-04-07T09:56:51.950Z,98036.72
2023-04-07T09:59:57.117Z,98041.91
2023-04-07T10:03:00.074Z,98042.00
2023-04-07T10:06:03.117Z,98033.47
2023-04-07T10:09:05.815Z,98030.19
2023-04-07T10:12:10.048Z,98029.25
2023-04-07T10:15:15.716Z,98032.34
2023-04-07T10:18:18.978Z,98027.97
2023-04-07T10:21:22.288Z,98021.16
2023-04-07T10:24:40.893Z,98021.97
2023-04-07T10:27:51.161Z,98022.88
2023-04-07T10:30:55.457Z,98022.47
2023-04-07T10:33:59.244Z,98019.84
2023-04-07T10:37:10.869Z,98018.41
2023-04-07T10:40:30.210Z,98017.06
2023-04-07T10:43:45.319Z,98020.75
2023-04-07T10:47:04.882Z,98028.59
2023-04-07T10:50:21.957Z,98023.38
2023-04-07T10:53:25.333Z,98039.44
2023-04-07T10:56:28.557Z,98028.41
2023-04-07T10:59:34.194Z,98034.56
2023-04-07T11:02:39.460Z,98037.69
2023-04-07T11:05:43.296Z,98038.59
2023-04-07T11:08:49.223Z,98038.44
2023-04-07T11:11:53.521Z,98039.72
2023-04-07T11:14:59.781Z,98041.19
2023-04-07T11:18:14.570Z,98046.28
2023-04-07T11:21:19.891Z,98047.94
2023-04-07T11:24:37.643Z,98037.19
2023-04-07T11:27:40.400Z,98044.13
2023-04-07T11:30:49.848Z,98047.69
2023-04-07T11:33:54.948Z,98045.91
2023-04-07T11:36:59.739Z,98051.28
2023-04-07T11:40:02.441Z,98064.34
2023-04-07T11:43:17.201Z,98074.38
2023-04-07T11:46:21.592Z,98076.81
2023-04-07T11:49:25.886Z,98083.84
2023-04-07T11:52:28.522Z,98094.88
2023-04-07T11:55:31.329Z,98081.44
2023-04-07T11:58:34.358Z,98081.50
2023-04-07T12:01:42.828Z,98086.28
2023-04-07T12:04:57.227Z,98093.50
2023-04-07T12:07:59.902Z,98088.34
2023-04-07T12:11:05.307Z,98085.19
2023-04-07T12:14:09.125Z,98090.84
2023-04-07T12:17:22.774Z,98082.31
2023-04-07T12:20:25.727Z,98086.69
2023-04-07T12:23:28.671Z,98091.47
2023-04-07T12:26:31.246Z,98088.75
2023-04-07T12:29:35.014Z,98087.03
2023-04-07T12:32:39.162Z,98085.78
2023-04-07T12:35:41.853Z,98094.31
2023-04-07T12:38:44.515Z,98083.69
2023-04-07T12:41:48.493Z,98087.75
2023-04-07T12:44:51.646Z,98089.25
2023-04-07T12:47:55.698Z,98088.97
2023-04-07T12:50:58.360Z,98084.78
2023-04-07T12:54:01.644Z,98081.81
2023-04-07T12:57:04.429Z,98094.72
2023-04-07T13:00:08.441Z,98090.69
2023-04-07T13:03:12.600Z,98087.94
2023-04-07T13:06:15.847Z,98089.56
2023-04-07T13:09:18.422Z,98093.28
2023-04-07T13:12:21.120Z,98088.16
2023-04-07T13:15:24.587Z,98086.81
2023-04-07T13:18:28.705Z,98091.09
2023-04-07T13:24:36.892Z,98100.34
2023-04-07T13:27:39.481Z,98094.13
2023-04-07T13:30:42.535Z,98095.16
2023-04-07T13:33:46.675Z,98086.63
2023-04-07T13:36:49.455Z,98081.53
2023-04-07T13:39:53.086Z,98083.97
2023-04-07T13:42:56.166Z,98083.94
2023-04-07T13:45:58.819Z,98086.06
2023-04-07T13:49:02.926Z,98078.22
2023-04-07T13:52:05.713Z,98087.84
2023-04-07T13:55:09.108Z,98078.69
2023-04-07T13:58:11.728Z,98073.59
2023-04-07T14:01:14.537Z,98067.19
2023-04-07T14:04:18.645Z,98077.19
2023-04-07T14:07:21.753Z,98075.03
2023-04-07T14:10:24.324Z,98077.13
2023-04-07T14:13:27.163Z,98070.63
2023-04-07T14:16:29.915Z,98074.13
2023-04-07T14:19:34.950Z,98074.66
2023-04-07T14:22:37.575Z,98076.34
2023-04-07T14:25:40.168Z,98081.97
2023-04-07T14:28:42.829Z,98078.22
2023-04-07T14:31:48.509Z,98084.06
2023-04-07T14:34:52.472Z,98073.53
2023-04-07T14:37:55.485Z,98084.28
2023-04-07T14:41:09.724Z,98073.78
2023-04-07T14:44:12.931Z,98072.63
2023-04-07T14:47:15.965Z,98075.03
2023-04-07T14:50:20.463Z,98068.53
2023-04-07T14:53:23.431Z,98082.94
2023-04-07T14:56:26.225Z,98078.63
2023-04-07T14:59:28.885Z,98077.44
2023-04-07T15:02:32.680Z,98094.59
2023-04-07T15:05:36.829Z,98081.59
2023-04-07T15:08:39.713Z,98087.38
2023-04-07T15:11:42.374Z,98088.66
2023-04-07T15:14:45.875Z,98084.81
2023-04-07T15:17:48.534Z,98083.97
2023-04-07T15:20:52.540Z,98087.69
2023-04-07T15:23:55.127Z,98091.41
2023-04-07T15:26:57.768Z,98086.19
2023-04-07T15:30:00.662Z,98078.75
2023-04-07T15:33:04.792Z,98082.41
2023-04-07T15:36:09.510Z,98083.72
2023-04-07T15:39:12.372Z,98086.47
2023-04-07T15:42:14.998Z,98091.19
2023-04-07T15:45:17.674Z,98088.53
2023-04-07T15:48:20.359Z,98092.78
2023-04-07T15:51:24.776Z,98092.91
2023-04-07T15:54:27.626Z,98101.88
2023-04-07T15:57:30.307Z,98091.75
2023-04-07T16:00:35.692Z,98102.31
2023-04-07T16:03:38.529Z,98105.06
2023-04-07T16:06:42.618Z,98112.09
2023-04-07T16:09:45.284Z,98115.13
2023-04-07T16:12:48.541Z,98110.19
2023-04-07T16:15:51.323Z,98107.34
2023-04-07T16:18:53.942Z,98107.44
2023-04-07T16:21:57.929Z,98113.63
2023-04-07T16:25:01.162Z,98111.50
2023-04-07T16:28:03.770Z,98116.47
2023-04-07T16:31:13.441Z,98124.84
2023-04-07T16:34:19.849Z,98126.00
2023-04-07T16:37:32.478Z,98127.69
2023-04-07T16:40:50.424Z,98122.38
2023-04-07T16:44:18.394Z,98125.13
2023-04-07T16:47:31.606Z,98128.97
2023-04-07T16:50:49.132Z,98132.47
2023-04-07T16:54:30.911Z,98134.66
2023-04-07T16:57:51.805Z,98127.44
2023-04-07T17:01:09.910Z,98140.81
2023-04-07T17:04:17.940Z,98146.50
2023-04-07T17:07:47.016Z,98149.81
2023-04-07T17:11:02.030Z,98157.09
2023-04-07T17:14:10.501Z,98158.69
2023-04-07T17:17:24.612Z,98164.88
2023-04-07T17:20:37.143Z,98173.56
2023-04-07T17:23:53.788Z,98184.22
2023-04-07T17:27:02.652Z,98189.44
2023-04-07T17:30:22.632Z,98189.25
2023-04-07T17:33:30.537Z,98184.03
2023-04-07T17:36:38.030Z,98196.41
2023-04-07T17:39:47.141Z,98202.06
2023-04-07T17:42:55.856Z,98204.25
2023-04-07T17:46:05.252Z,98203.97
2023-04-07T17:49:17.162Z,98207.00
2023-04-07T17:52:26.752Z,98215.13
2023-04-07T17:56:08.886Z,98223.25
2023-04-07T17:59:17.342Z,98227.00
2023-04-07T18:02:24.211Z,98234.59
2023-04-07T18:05:31.892Z,98237.81
2023-04-07T18:08:39.403Z,98239.72
2023-04-07T18:11:46.769Z,98244.63
2023-04-07T18:14:57.100Z,98250.53
2023-04-07T18:18:04.871Z,98249.47
2023-04-07T18:21:10.331Z,98260.28
2023-04-07T18:24:23.574Z,98256.78
2023-04-07T18:27:54.370Z,98266.19
2023-04-07T18:31:43.068Z,98269.19
2023-04-07T18:35:00.419Z,98282.59
2023-04-07T18:38:18.181Z,98288.81
2023-04-07T18:41:23.014Z,98289.59
2023-04-07T18:44:29.664Z,98297.69
2023-04-07T18:47:40.181Z,98298.25
2023-04-07T18:50:53.219Z,98302.31
2023-04-07T18:54:04.555Z,98310.09
2023-04-07T18:57:21.753Z,98303.63
2023-04-07T19:00:32.128Z,98318.66
2023-04-07T19:03:44.292Z,98316.75
2023-04-07T19:07:12.303Z,98323.75
2023-04-07T19:10:19.090Z,98327.47
2023-04-07T19:13:27.462Z,98326.91
2023-04-07T19:16:34.712Z,98335.25
2023-04-07T19:19:46.282Z,98338.19
2023-04-07T19:22:55.661Z,98336.63
2023-04-07T19:26:07.908Z,98333.13
2023-04-07T19:29:15.100Z,98341.97
2023-04-07T19:32:18.697Z,98337.44
2023-04-07T19:36:23.162Z,98342.78
2023-04-07T19:39:55.690Z,98342.53
2023-04-07T19:43:40.729Z,98352.72
2023-04-07T19:46:45.880Z,98355.66
2023-04-07T19:49:55.999Z,98355.06
2023-04-07T19:56:49.414Z,98359.06
2023-04-07T20:00:21.916Z,98361.19
2023-04-07T20:03:34.362Z,98361.97
2023-04-07T20:07:05.120Z,98370.00
2023-04-07T20:10:35.452Z,98376.69
2023-04-07T20:13:47.817Z,98377.50
2023-04-07T20:17:06.698Z,98378.03
2023-04-07T20:20:33.159Z,98377.22
2023-04-07T20:23:41.434Z,98383.88
2023-04-07T20:26:52.998Z,98380.06
2023-04-07T20:30:13.499Z,98378.75
2023-04-07T20:33:34.543Z,98376.31
2023-04-07T20:36:49.597Z,98384.34
2023-04-07T20:40:05.940Z,98387.50
2023-04-07T20:43:12.078Z,98395.25
2023-04-07T20:46:20.690Z,98398.19
2023-04-07T20:49:26.784Z,98390.44
2023-04-07T20:52:33.142Z,98386.78
2023-04-07T20:55:37.008Z,98384.66
2023-04-07T20:58:39.828Z,98393.72
2023-04-07T21:01:44.630Z,98399.03
2023-04-07T21:04:48.070Z,98400.59
2023-04-07T21:07:50.833Z,98404.56
2023-04-07T21:10:53.735Z,98408.31
2023-04-07T21:13:56.472Z,98404.50
2023-04-07T21:17:00.771Z,98407.16
2023-04-07T21:20:04.247Z,98408.22
2023-04-07T21:23:08.509Z,98408.22
2023-04-07T21:26:11.465Z,98410.06
2023-04-07T21:29:14.300Z,98413.31
2023-04-07T21:32:18.677Z,98410.59
2023-04-07T21:35:22.115Z,98410.06
2023-04-07T21:38:24.863Z,98403.63
2023-04-07T21:41:27.596Z,98404.16
2023-04-07T21:44:30.479Z,98410.31
2023-04-07T21:47:34.578Z,98414.59
2023-04-07T21:50:38.130Z,98414.84
2023-04-07T21:53:41.500Z,98415.66
2023-04-07T21:56:46.709Z,98421.84
2023-04-07T21:59:49.435Z,98407.41
2023-04-07T22:02:54.657Z,98413.84
2023-04-07T22:05:59.177Z,98408.50
2023-04-07T22:09:02.554Z,98419.19
2023-04-07T22:12:05.494Z,98411.97
2023-04-07T22:15:09.473Z,98414.03
2023-04-07T22:18:13.823Z,98414.56
2023-04-07T22:21:16.884Z,98419.63
2023-04-07T22:24:19.964Z,98414.22
2023-04-07T22:27:22.719Z,98421.97
2023-04-07T22:30:25.746Z,98418.25
2023-04-07T22:33:30.545Z,98418.53
2023-04-07T22:36:34.355Z,98419.31
2023-04-07T22:39:37.749Z,98420.38
2023-04-07T22:42:40.879Z,98421.75
2023-04-07T22:45:43.747Z,98423.63
2023-04-07T22:48:49.086Z,98424.75
2023-04-07T22:51:52.201Z,98426.66
2023-04-07T22:54:55.093Z,98427.75
2023-04-07T22:57:57.999Z,98427.78
2023-04-07T23:01:00.842Z,98431.06
2023-04-07T23:04:05.221Z,98425.72
2023-04-07T23:07:07.957Z,98427.63
2023-04-07T23:10:10.917Z,98433.22
2023-04-07T23:13:15.101Z,98434.03
2023-04-07T23:16:17.952Z,98427.16
2023-04-07T23:19:22.107Z,98436.50
2023-04-07T23:22:25.089Z,98435.72
2023-04-07T23:25:28.464Z,98439.50
2023-04-07T23:28:31.379Z,98441.97
2023-04-07T23:31:34.191Z,98442.53
2023-04-07T23:34:38.374Z,98436.91
2023-04-07T23:37:41.530Z,98452.94
2023-04-07T23:40:44.362Z,98451.84
2023-04-07T23:43:47.575Z,98448.09
2023-04-07T23:46:50.467Z,98450.22
2023-04-07T23:49:54.560Z,98451.03
2023-04-07T23:52:57.308Z,98451.88
2023-04-07T23:56:00.298Z,98463.66
2023-04-07T23:59:03.276Z,98455.09
